sensor_id;sensor_type;location;lat;lon;timestamp;temperature;humidity
44982;DHT22;30716;41.740;-70.400;2023-03-03T00:01:23;24.10;36.70
44982;DHT22;30716;41.740;-70.400;2023-03-03T00:03:52;24.10;36.50
44982;DHT22;30716;41.740;-70.400;2023-03-03T00:06:20;24.10;36.50
44982;DHT22;30716;41.740;-70.400;2023-03-03T00:08:46;24.10;36.50
44982;DHT22;30716;41.740;-70.400;2023-03-03T00:11:12;24.10;36.50
44982;DHT22;30716;41.740;-70.400;2023-03-03T00:13:50;24.10;36.40
44982;DHT22;30716;41.740;-70.400;2023-03-03T00:16:38;24.20;36.30
44982;DHT22;30716;41.740;-70.400;2023-03-03T00:19:17;24.20;36.50
44982;DHT22;30716;41.740;-70.400;2023-03-03T00:21:48;24.20;36.40
44982;DHT22;30716;41.740;-70.400;2023-03-03T00:24:44;24.20;36.50
44982;DHT22;30716;41.740;-70.400;2023-03-03T00:27:39;24.20;36.50
44982;DHT22;30716;41.740;-70.400;2023-03-03T00:30:26;24.20;36.50
44982;DHT22;30716;41.740;-70.400;2023-03-03T00:32:53;24.20;36.60
44982;DHT22;30716;41.740;-70.400;2023-03-03T00:35:31;24.20;36.70
44982;DHT22;30716;41.740;-70.400;2023-03-03T00:38:18;24.20;36.70
44982;DHT22;30716;41.740;-70.400;2023-03-03T00:40:46;24.20;36.60
44982;DHT22;30716;41.740;-70.400;2023-03-03T00:43:16;24.20;36.50
44982;DHT22;30716;41.740;-70.400;2023-03-03T00:45:46;24.20;36.90
44982;DHT22;30716;41.740;-70.400;2023-03-03T00:48:29;24.20;36.70
44982;DHT22;30716;41.740;-70.400;2023-03-03T00:50:58;24.10;36.70
44982;DHT22;30716;41.740;-70.400;2023-03-03T00:53:27;24.10;36.50
44982;DHT22;30716;41.740;-70.400;2023-03-03T00:55:54;24.10;36.50
44982;DHT22;30716;41.740;-70.400;2023-03-03T00:58:22;24.10;36.40
44982;DHT22;30716;41.740;-70.400;2023-03-03T01:00:52;24.20;36.50
44982;DHT22;30716;41.740;-70.400;2023-03-03T01:03:22;24.20;36.50
44982;DHT22;30716;41.740;-70.400;2023-03-03T01:05:49;24.10;36.50
44982;DHT22;30716;41.740;-70.400;2023-03-03T01:08:16;24.20;36.70
44982;DHT22;30716;41.740;-70.400;2023-03-03T01:10:49;24.20;36.60
44982;DHT22;30716;41.740;-70.400;2023-03-03T01:13:17;24.20;36.50
44982;DHT22;30716;41.740;-70.400;2023-03-03T01:15:44;24.20;36.60
44982;DHT22;30716;41.740;-70.400;2023-03-03T01:18:11;24.20;36.50
44982;DHT22;30716;41.740;-70.400;2023-03-03T01:20:37;24.20;36.40
44982;DHT22;30716;41.740;-70.400;2023-03-03T01:23:04;24.20;36.40
44982;DHT22;30716;41.740;-70.400;2023-03-03T01:25:30;24.20;36.40
44982;DHT22;30716;41.740;-70.400;2023-03-03T01:27:56;24.20;36.40
44982;DHT22;30716;41.740;-70.400;2023-03-03T01:30:24;24.20;36.30
44982;DHT22;30716;41.740;-70.400;2023-03-03T01:32:51;24.20;36.50
44982;DHT22;30716;41.740;-70.400;2023-03-03T01:35:17;24.20;36.30
44982;DHT22;30716;41.740;-70.400;2023-03-03T01:37:44;24.20;36.20
44982;DHT22;30716;41.740;-70.400;2023-03-03T01:40:21;24.20;36.10
44982;DHT22;30716;41.740;-70.400;2023-03-03T01:42:49;24.20;36.10
44982;DHT22;30716;41.740;-70.400;2023-03-03T01:45:24;24.30;36.30
44982;DHT22;30716;41.740;-70.400;2023-03-03T01:47:51;24.30;36.30
44982;DHT22;30716;41.740;-70.400;2023-03-03T01:52:59;24.30;36.30
44982;DHT22;30716;41.740;-70.400;2023-03-03T01:55:32;24.30;36.50
44982;DHT22;30716;41.740;-70.400;2023-03-03T01:58:06;24.30;36.30
44982;DHT22;30716;41.740;-70.400;2023-03-03T02:00:35;24.30;36.30
44982;DHT22;30716;41.740;-70.400;2023-03-03T02:03:03;24.30;36.20
44982;DHT22;30716;41.740;-70.400;2023-03-03T02:05:30;24.30;36.70
44982;DHT22;30716;41.740;-70.400;2023-03-03T02:07:57;24.30;36.20
44982;DHT22;30716;41.740;-70.400;2023-03-03T02:10:23;24.30;36.40
44982;DHT22;30716;41.740;-70.400;2023-03-03T02:12:54;24.30;36.20
44982;DHT22;30716;41.740;-70.400;2023-03-03T02:17:54;24.30;36.20
44982;DHT22;30716;41.740;-70.400;2023-03-03T02:20:51;24.30;36.20
44982;DHT22;30716;41.740;-70.400;2023-03-03T02:28:29;24.30;36.20
44982;DHT22;30716;41.740;-70.400;2023-03-03T02:30:59;24.30;36.20
44982;DHT22;30716;41.740;-70.400;2023-03-03T02:33:26;24.30;36.20
44982;DHT22;30716;41.740;-70.400;2023-03-03T02:35:53;24.30;36.80
44982;DHT22;30716;41.740;-70.400;2023-03-03T02:44:04;24.30;36.10
44982;DHT22;30716;41.740;-70.400;2023-03-03T02:46:36;24.30;36.20
44982;DHT22;30716;41.740;-70.400;2023-03-03T02:49:04;24.30;36.30
44982;DHT22;30716;41.740;-70.400;2023-03-03T02:51:31;24.30;36.50
44982;DHT22;30716;41.740;-70.400;2023-03-03T02:53:57;24.30;36.30
44982;DHT22;30716;41.740;-70.400;2023-03-03T02:56:24;24.30;36.40
44982;DHT22;30716;41.740;-70.400;2023-03-03T02:58:53;24.30;36.20
44982;DHT22;30716;41.740;-70.400;2023-03-03T03:01:20;24.30;36.20
44982;DHT22;30716;41.740;-70.400;2023-03-03T03:03:46;24.30;36.30
44982;DHT22;30716;41.740;-70.400;2023-03-03T03:06:13;24.30;36.20
44982;DHT22;30716;41.740;-70.400;2023-03-03T03:08:40;24.40;36.40
44982;DHT22;30716;41.740;-70.400;2023-03-03T03:11:06;24.40;36.20
44982;DHT22;30716;41.740;-70.400;2023-03-03T03:13:36;24.40;36.30
44982;DHT22;30716;41.740;-70.400;2023-03-03T03:16:02;24.40;36.30
44982;DHT22;30716;41.740;-70.400;2023-03-03T03:18:29;24.40;36.30
44982;DHT22;30716;41.740;-70.400;2023-03-03T03:20:56;24.40;36.20
44982;DHT22;30716;41.740;-70.400;2023-03-03T03:23:23;24.40;36.20
44982;DHT22;30716;41.740;-70.400;2023-03-03T03:25:49;24.40;36.30
44982;DHT22;30716;41.740;-70.400;2023-03-03T03:28:16;24.40;36.30
44982;DHT22;30716;41.740;-70.400;2023-03-03T03:30:43;24.40;36.30
44982;DHT22;30716;41.740;-70.400;2023-03-03T03:33:10;24.40;36.30
44982;DHT22;30716;41.740;-70.400;2023-03-03T03:35:37;24.40;36.40
44982;DHT22;30716;41.740;-70.400;2023-03-03T03:38:05;24.40;36.30
44982;DHT22;30716;41.740;-70.400;2023-03-03T03:40:31;24.40;36.40
44982;DHT22;30716;41.740;-70.400;2023-03-03T03:42:57;24.50;36.40
44982;DHT22;30716;41.740;-70.400;2023-03-03T03:45:24;24.50;36.40
44982;DHT22;30716;41.740;-70.400;2023-03-03T03:47:50;24.50;36.40
44982;DHT22;30716;41.740;-70.400;2023-03-03T03:50:16;24.50;36.40
44982;DHT22;30716;41.740;-70.400;2023-03-03T03:52:42;24.40;36.40
44982;DHT22;30716;41.740;-70.400;2023-03-03T03:55:09;24.50;36.40
44982;DHT22;30716;41.740;-70.400;2023-03-03T03:57:35;24.50;36.50
44982;DHT22;30716;41.740;-70.400;2023-03-03T04:00:02;24.40;36.40
44982;DHT22;30716;41.740;-70.400;2023-03-03T04:02:29;24.50;36.50
44982;DHT22;30716;41.740;-70.400;2023-03-03T04:04:55;24.50;36.50
44982;DHT22;30716;41.740;-70.400;2023-03-03T04:07:21;24.50;36.50
44982;DHT22;30716;41.740;-70.400;2023-03-03T04:09:48;24.50;36.50
44982;DHT22;30716;41.740;-70.400;2023-03-03T04:12:14;24.50;36.50
44982;DHT22;30716;41.740;-70.400;2023-03-03T04:14:41;24.50;36.50
44982;DHT22;30716;41.740;-70.400;2023-03-03T04:17:07;24.50;36.50
44982;DHT22;30716;41.740;-70.400;2023-03-03T04:19:33;24.50;36.50
44982;DHT22;30716;41.740;-70.400;2023-03-03T04:22:00;24.50;36.30
44982;DHT22;30716;41.740;-70.400;2023-03-03T04:24:26;24.50;36.30
44982;DHT22;30716;41.740;-70.400;2023-03-03T04:26:52;24.50;36.30
44982;DHT22;30716;41.740;-70.400;2023-03-03T04:29:18;24.50;36.40
44982;DHT22;30716;41.740;-70.400;2023-03-03T04:31:45;24.50;36.30
44982;DHT22;30716;41.740;-70.400;2023-03-03T04:34:11;24.50;36.20
44982;DHT22;30716;41.740;-70.400;2023-03-03T04:36:37;24.50;36.40
44982;DHT22;30716;41.740;-70.400;2023-03-03T04:39:04;24.50;36.10
44982;DHT22;30716;41.740;-70.400;2023-03-03T04:41:30;24.40;36.00
44982;DHT22;30716;41.740;-70.400;2023-03-03T04:43:56;24.40;36.00
44982;DHT22;30716;41.740;-70.400;2023-03-03T04:46:22;24.40;36.10
44982;DHT22;30716;41.740;-70.400;2023-03-03T04:48:48;24.40;36.20
44982;DHT22;30716;41.740;-70.400;2023-03-03T04:51:14;24.40;36.20
44982;DHT22;30716;41.740;-70.400;2023-03-03T04:53:41;24.40;36.10
44982;DHT22;30716;41.740;-70.400;2023-03-03T04:56:07;24.40;35.90
44982;DHT22;30716;41.740;-70.400;2023-03-03T04:58:33;24.40;35.90
44982;DHT22;30716;41.740;-70.400;2023-03-03T05:01:00;24.40;35.70
44982;DHT22;30716;41.740;-70.400;2023-03-03T05:03:26;24.50;35.70
44982;DHT22;30716;41.740;-70.400;2023-03-03T05:05:53;24.40;35.60
44982;DHT22;30716;41.740;-70.400;2023-03-03T05:08:19;24.40;35.80
44982;DHT22;30716;41.740;-70.400;2023-03-03T05:10:45;24.40;35.80
44982;DHT22;30716;41.740;-70.400;2023-03-03T05:13:11;24.40;36.50
44982;DHT22;30716;41.740;-70.400;2023-03-03T05:15:40;24.40;35.90
44982;DHT22;30716;41.740;-70.400;2023-03-03T05:18:06;24.40;35.70
44982;DHT22;30716;41.740;-70.400;2023-03-03T05:20:33;24.40;35.80
44982;DHT22;30716;41.740;-70.400;2023-03-03T05:22:59;24.40;35.80
44982;DHT22;30716;41.740;-70.400;2023-03-03T05:25:26;24.40;35.70
44982;DHT22;30716;41.740;-70.400;2023-03-03T05:27:52;24.40;35.70
44982;DHT22;30716;41.740;-70.400;2023-03-03T05:30:19;24.40;35.70
44982;DHT22;30716;41.740;-70.400;2023-03-03T05:32:46;24.40;35.90
44982;DHT22;30716;41.740;-70.400;2023-03-03T05:35:12;24.40;35.60
44982;DHT22;30716;41.740;-70.400;2023-03-03T05:37:38;24.40;35.70
44982;DHT22;30716;41.740;-70.400;2023-03-03T05:40:08;24.40;35.60
44982;DHT22;30716;41.740;-70.400;2023-03-03T05:42:34;24.40;35.60
44982;DHT22;30716;41.740;-70.400;2023-03-03T05:45:00;24.40;35.50
44982;DHT22;30716;41.740;-70.400;2023-03-03T05:47:27;24.40;35.50
44982;DHT22;30716;41.740;-70.400;2023-03-03T05:49:56;24.40;35.50
44982;DHT22;30716;41.740;-70.400;2023-03-03T05:52:22;24.40;35.50
44982;DHT22;30716;41.740;-70.400;2023-03-03T05:54:51;24.40;35.50
44982;DHT22;30716;41.740;-70.400;2023-03-03T05:57:18;24.40;35.50
44982;DHT22;30716;41.740;-70.400;2023-03-03T05:59:44;24.50;35.40
44982;DHT22;30716;41.740;-70.400;2023-03-03T06:02:10;24.50;35.50
44982;DHT22;30716;41.740;-70.400;2023-03-03T06:04:36;24.50;35.40
44982;DHT22;30716;41.740;-70.400;2023-03-03T06:07:03;24.50;35.40
44982;DHT22;30716;41.740;-70.400;2023-03-03T06:09:29;24.50;36.20
44982;DHT22;30716;41.740;-70.400;2023-03-03T06:11:55;24.50;35.50
44982;DHT22;30716;41.740;-70.400;2023-03-03T06:14:22;24.60;35.50
44982;DHT22;30716;41.740;-70.400;2023-03-03T06:16:48;24.60;35.50
44982;DHT22;30716;41.740;-70.400;2023-03-03T06:19:15;24.60;35.30
44982;DHT22;30716;41.740;-70.400;2023-03-03T06:21:41;24.60;35.40
44982;DHT22;30716;41.740;-70.400;2023-03-03T06:24:08;24.60;35.60
44982;DHT22;30716;41.740;-70.400;2023-03-03T06:26:35;24.60;35.60
44982;DHT22;30716;41.740;-70.400;2023-03-03T06:29:01;24.60;35.50
44982;DHT22;30716;41.740;-70.400;2023-03-03T06:31:27;24.60;35.50
44982;DHT22;30716;41.740;-70.400;2023-03-03T06:33:53;24.60;35.50
44982;DHT22;30716;41.740;-70.400;2023-03-03T06:36:20;24.60;35.40
44982;DHT22;30716;41.740;-70.400;2023-03-03T06:38:46;24.60;35.50
44982;DHT22;30716;41.740;-70.400;2023-03-03T06:41:12;24.60;35.30
44982;DHT22;30716;41.740;-70.400;2023-03-03T06:43:38;24.60;35.20
44982;DHT22;30716;41.740;-70.400;2023-03-03T06:46:05;24.60;35.20
44982;DHT22;30716;41.740;-70.400;2023-03-03T06:48:32;24.60;35.30
44982;DHT22;30716;41.740;-70.400;2023-03-03T06:51:00;24.60;35.10
44982;DHT22;30716;41.740;-70.400;2023-03-03T06:53:27;24.60;35.20
44982;DHT22;30716;41.740;-70.400;2023-03-03T06:55:55;24.60;36.00
44982;DHT22;30716;41.740;-70.400;2023-03-03T06:58:22;24.60;35.20
44982;DHT22;30716;41.740;-70.400;2023-03-03T07:00:56;24.60;35.20
44982;DHT22;30716;41.740;-70.400;2023-03-03T07:03:25;24.60;35.20
44982;DHT22;30716;41.740;-70.400;2023-03-03T07:05:53;24.60;35.30
44982;DHT22;30716;41.740;-70.400;2023-03-03T07:08:22;24.60;35.10
44982;DHT22;30716;41.740;-70.400;2023-03-03T07:10:50;24.60;35.50
44982;DHT22;30716;41.740;-70.400;2023-03-03T07:13:20;24.60;35.00
44982;DHT22;30716;41.740;-70.400;2023-03-03T07:15:49;24.60;35.00
44982;DHT22;30716;41.740;-70.400;2023-03-03T07:18:24;24.60;35.00
44982;DHT22;30716;41.740;-70.400;2023-03-03T07:20:51;24.60;35.00
44982;DHT22;30716;41.740;-70.400;2023-03-03T07:23:24;24.60;34.90
44982;DHT22;30716;41.740;-70.400;2023-03-03T07:25:51;24.60;34.90
44982;DHT22;30716;41.740;-70.400;2023-03-03T07:28:28;24.60;34.70
44982;DHT22;30716;41.740;-70.400;2023-03-03T07:30:57;24.60;34.70
44982;DHT22;30716;41.740;-70.400;2023-03-03T07:33:34;24.60;34.60
44982;DHT22;30716;41.740;-70.400;2023-03-03T07:36:17;24.60;34.90
44982;DHT22;30716;41.740;-70.400;2023-03-03T07:38:52;24.60;34.70
44982;DHT22;30716;41.740;-70.400;2023-03-03T07:41:19;24.60;34.60
44982;DHT22;30716;41.740;-70.400;2023-03-03T07:43:53;24.60;34.70
44982;DHT22;30716;41.740;-70.400;2023-03-03T07:46:30;24.60;34.60
44982;DHT22;30716;41.740;-70.400;2023-03-03T07:48:59;24.60;34.60
44982;DHT22;30716;41.740;-70.400;2023-03-03T07:51:28;24.60;34.70
44982;DHT22;30716;41.740;-70.400;2023-03-03T07:56:55;24.60;34.70
44982;DHT22;30716;41.740;-70.400;2023-03-03T07:59:24;24.60;34.90
44982;DHT22;30716;41.740;-70.400;2023-03-03T08:01:56;24.60;34.70
44982;DHT22;30716;41.740;-70.400;2023-03-03T08:04:41;24.60;34.90
44982;DHT22;30716;41.740;-70.400;2023-03-03T08:07:14;24.60;35.00
44982;DHT22;30716;41.740;-70.400;2023-03-03T08:09:49;24.60;35.00
44982;DHT22;30716;41.740;-70.400;2023-03-03T08:12:39;24.60;34.90
44982;DHT22;30716;41.740;-70.400;2023-03-03T08:15:24;24.60;34.80
44982;DHT22;30716;41.740;-70.400;2023-03-03T08:17:52;24.60;34.90
44982;DHT22;30716;41.740;-70.400;2023-03-03T08:20:42;24.60;34.90
44982;DHT22;30716;41.740;-70.400;2023-03-03T08:23:10;24.60;35.10
44982;DHT22;30716;41.740;-70.400;2023-03-03T08:25:37;24.60;35.00
44982;DHT22;30716;41.740;-70.400;2023-03-03T08:28:04;24.60;35.00
44982;DHT22;30716;41.740;-70.400;2023-03-03T08:30:30;24.60;34.90
44982;DHT22;30716;41.740;-70.400;2023-03-03T08:32:57;24.60;34.90
44982;DHT22;30716;41.740;-70.400;2023-03-03T08:35:23;24.60;34.90
44982;DHT22;30716;41.740;-70.400;2023-03-03T08:37:50;24.60;34.90
44982;DHT22;30716;41.740;-70.400;2023-03-03T08:40:16;24.60;34.90
44982;DHT22;30716;41.740;-70.400;2023-03-03T08:42:42;24.60;34.70
44982;DHT22;30716;41.740;-70.400;2023-03-03T08:45:09;24.60;34.70
44982;DHT22;30716;41.740;-70.400;2023-03-03T08:47:35;24.60;34.70
44982;DHT22;30716;41.740;-70.400;2023-03-03T08:50:01;24.60;34.60
44982;DHT22;30716;41.740;-70.400;2023-03-03T08:52:28;24.60;34.70
44982;DHT22;30716;41.740;-70.400;2023-03-03T08:54:54;24.60;34.60
44982;DHT22;30716;41.740;-70.400;2023-03-03T08:57:20;24.60;34.70
44982;DHT22;30716;41.740;-70.400;2023-03-03T08:59:46;24.60;34.60
44982;DHT22;30716;41.740;-70.400;2023-03-03T09:02:12;24.70;34.60
44982;DHT22;30716;41.740;-70.400;2023-03-03T09:04:39;24.70;34.70
44982;DHT22;30716;41.740;-70.400;2023-03-03T09:07:05;24.70;34.60
44982;DHT22;30716;41.740;-70.400;2023-03-03T09:09:31;24.70;34.60
44982;DHT22;30716;41.740;-70.400;2023-03-03T09:12:04;24.60;34.60
44982;DHT22;30716;41.740;-70.400;2023-03-03T09:14:32;24.60;34.50
44982;DHT22;30716;41.740;-70.400;2023-03-03T09:16:58;24.60;35.30
44982;DHT22;30716;41.740;-70.400;2023-03-03T09:19:32;24.60;34.60
44982;DHT22;30716;41.740;-70.400;2023-03-03T09:22:17;24.60;34.60
44982;DHT22;30716;41.740;-70.400;2023-03-03T09:24:46;24.60;34.70
44982;DHT22;30716;41.740;-70.400;2023-03-03T09:27:19;24.60;34.60
44982;DHT22;30716;41.740;-70.400;2023-03-03T09:29:50;24.60;34.60
44982;DHT22;30716;41.740;-70.400;2023-03-03T09:32:35;24.60;34.50
44982;DHT22;30716;41.740;-70.400;2023-03-03T09:35:36;24.60;34.50
44982;DHT22;30716;41.740;-70.400;2023-03-03T09:40:55;24.60;34.50
44982;DHT22;30716;41.740;-70.400;2023-03-03T09:46:39;24.60;34.60
44982;DHT22;30716;41.740;-70.400;2023-03-03T09:57:58;24.60;34.50
44982;DHT22;30716;41.740;-70.400;2023-03-03T10:19:37;24.60;34.30
44982;DHT22;30716;41.740;-70.400;2023-03-03T10:24:36;24.60;34.20
44982;DHT22;30716;41.740;-70.400;2023-03-03T10:30:20;24.60;34.20
44982;DHT22;30716;41.740;-70.400;2023-03-03T10:33:00;24.60;34.20
44982;DHT22;30716;41.740;-70.400;2023-03-03T10:38:11;24.50;34.00
44982;DHT22;30716;41.740;-70.400;2023-03-03T10:40:56;24.60;34.10
44982;DHT22;30716;41.740;-70.400;2023-03-03T10:49:55;24.60;34.20
44982;DHT22;30716;41.740;-70.400;2023-03-03T11:06:32;24.60;34.30
44982;DHT22;30716;41.740;-70.400;2023-03-03T11:09:20;24.60;34.40
44982;DHT22;30716;41.740;-70.400;2023-03-03T11:12:05;24.60;34.50
44982;DHT22;30716;41.740;-70.400;2023-03-03T11:14:46;24.50;34.30
44982;DHT22;30716;41.740;-70.400;2023-03-03T11:23:00;24.60;34.40
44982;DHT22;30716;41.740;-70.400;2023-03-03T11:26:05;24.60;34.50
44982;DHT22;30716;41.740;-70.400;2023-03-03T11:28:58;24.60;34.60
44982;DHT22;30716;41.740;-70.400;2023-03-03T11:31:45;24.60;34.60
44982;DHT22;30716;41.740;-70.400;2023-03-03T11:34:39;24.60;34.60
44982;DHT22;30716;41.740;-70.400;2023-03-03T11:40:20;24.60;34.60
44982;DHT22;30716;41.740;-70.400;2023-03-03T11:45:50;24.60;34.60
44982;DHT22;30716;41.740;-70.400;2023-03-03T11:48:38;24.60;34.60
44982;DHT22;30716;41.740;-70.400;2023-03-03T11:51:10;24.60;34.60
44982;DHT22;30716;41.740;-70.400;2023-03-03T11:53:53;24.60;34.60
44982;DHT22;30716;41.740;-70.400;2023-03-03T11:59:28;24.60;34.70
44982;DHT22;30716;41.740;-70.400;2023-03-03T12:04:54;24.60;34.60
44982;DHT22;30716;41.740;-70.400;2023-03-03T12:07:47;24.60;34.70
44982;DHT22;30716;41.740;-70.400;2023-03-03T12:13:42;24.60;34.90
44982;DHT22;30716;41.740;-70.400;2023-03-03T12:27:18;24.60;34.80
44982;DHT22;30716;41.740;-70.400;2023-03-03T12:38:55;24.60;34.80
44982;DHT22;30716;41.740;-70.400;2023-03-03T12:41:51;24.60;34.90
44982;DHT22;30716;41.740;-70.400;2023-03-03T12:47:24;24.60;34.70
44982;DHT22;30716;41.740;-70.400;2023-03-03T12:55:35;24.60;34.70
44982;DHT22;30716;41.740;-70.400;2023-03-03T13:03:58;24.60;34.80
44982;DHT22;30716;41.740;-70.400;2023-03-03T13:07:02;24.60;34.80
44982;DHT22;30716;41.740;-70.400;2023-03-03T13:12:43;24.60;34.90
44982;DHT22;30716;41.740;-70.400;2023-03-03T13:15:22;24.50;35.50
44982;DHT22;30716;41.740;-70.400;2023-03-03T13:21:01;24.60;34.80
44982;DHT22;30716;41.740;-70.400;2023-03-03T13:26:39;24.50;35.50
44982;DHT22;30716;41.740;-70.400;2023-03-03T13:32:28;24.50;34.90
44982;DHT22;30716;41.740;-70.400;2023-03-03T13:35:08;24.50;34.70
44982;DHT22;30716;41.740;-70.400;2023-03-03T13:37:48;24.50;34.80
44982;DHT22;30716;41.740;-70.400;2023-03-03T13:40:37;24.50;35.00
44982;DHT22;30716;41.740;-70.400;2023-03-03T13:43:25;24.50;35.00
44982;DHT22;30716;41.740;-70.400;2023-03-03T13:48:44;24.40;34.90
44982;DHT22;30716;41.740;-70.400;2023-03-03T13:51:30;24.40;35.10
44982;DHT22;30716;41.740;-70.400;2023-03-03T14:07:54;24.40;35.30
44982;DHT22;30716;41.740;-70.400;2023-03-03T14:12:52;24.30;35.30
44982;DHT22;30716;41.740;-70.400;2023-03-03T14:15:27;24.30;35.40
44982;DHT22;30716;41.740;-70.400;2023-03-03T14:21:11;24.30;35.40
44982;DHT22;30716;41.740;-70.400;2023-03-03T14:23:50;24.30;35.40
44982;DHT22;30716;41.740;-70.400;2023-03-03T14:26:22;24.30;35.30
44982;DHT22;30716;41.740;-70.400;2023-03-03T14:28:49;24.30;35.70
44982;DHT22;30716;41.740;-70.400;2023-03-03T14:31:28;24.20;35.40
44982;DHT22;30716;41.740;-70.400;2023-03-03T14:36:49;24.20;35.70
44982;DHT22;30716;41.740;-70.400;2023-03-03T14:39:36;24.20;35.40
44982;DHT22;30716;41.740;-70.400;2023-03-03T14:42:11;24.20;35.40
44982;DHT22;30716;41.740;-70.400;2023-03-03T14:47:23;24.20;35.50
44982;DHT22;30716;41.740;-70.400;2023-03-03T14:49:50;24.20;35.30
44982;DHT22;30716;41.740;-70.400;2023-03-03T14:52:27;24.20;35.40
44982;DHT22;30716;41.740;-70.400;2023-03-03T14:54:58;24.20;36.30
44982;DHT22;30716;41.740;-70.400;2023-03-03T15:05:28;24.10;35.50
44982;DHT22;30716;41.740;-70.400;2023-03-03T15:07:57;24.10;35.50
44982;DHT22;30716;41.740;-70.400;2023-03-03T15:10:30;24.10;35.50
44982;DHT22;30716;41.740;-70.400;2023-03-03T15:12:57;24.10;35.50
44982;DHT22;30716;41.740;-70.400;2023-03-03T15:15:26;24.10;35.70
44982;DHT22;30716;41.740;-70.400;2023-03-03T15:17:56;24.10;35.70
44982;DHT22;30716;41.740;-70.400;2023-03-03T15:20:40;24.10;35.80
44982;DHT22;30716;41.740;-70.400;2023-03-03T15:26:16;24.10;35.70
44982;DHT22;30716;41.740;-70.400;2023-03-03T15:31:39;24.00;35.80
44982;DHT22;30716;41.740;-70.400;2023-03-03T15:39:51;24.00;36.00
44982;DHT22;30716;41.740;-70.400;2023-03-03T15:42:48;24.00;36.20
44982;DHT22;30716;41.740;-70.400;2023-03-03T15:51:20;23.90;36.00
44982;DHT22;30716;41.740;-70.400;2023-03-03T15:56:57;24.00;36.00
44982;DHT22;30716;41.740;-70.400;2023-03-03T16:02:49;24.00;35.70
44982;DHT22;30716;41.740;-70.400;2023-03-03T16:05:34;24.00;35.50
44982;DHT22;30716;41.740;-70.400;2023-03-03T16:08:16;24.00;35.40
44982;DHT22;30716;41.740;-70.400;2023-03-03T16:11:17;24.10;35.40
44982;DHT22;30716;41.740;-70.400;2023-03-03T16:14:06;24.10;35.20
44982;DHT22;30716;41.740;-70.400;2023-03-03T16:16:46;24.10;35.20
44982;DHT22;30716;41.740;-70.400;2023-03-03T16:22:10;24.10;35.20
44982;DHT22;30716;41.740;-70.400;2023-03-03T16:28:00;24.10;35.30
44982;DHT22;30716;41.740;-70.400;2023-03-03T16:30:49;24.10;35.30
44982;DHT22;30716;41.740;-70.400;2023-03-03T16:33:27;24.10;35.30
44982;DHT22;30716;41.740;-70.400;2023-03-03T16:39:16;24.10;35.50
44982;DHT22;30716;41.740;-70.400;2023-03-03T16:52:58;24.10;36.00
44982;DHT22;30716;41.740;-70.400;2023-03-03T16:58:15;24.00;35.90
44982;DHT22;30716;41.740;-70.400;2023-03-03T17:06:39;24.00;36.00
44982;DHT22;30716;41.740;-70.400;2023-03-03T17:14:26;24.00;36.00
44982;DHT22;30716;41.740;-70.400;2023-03-03T17:17:16;24.00;36.10
44982;DHT22;30716;41.740;-70.400;2023-03-03T17:25:52;23.90;36.00
44982;DHT22;30716;41.740;-70.400;2023-03-03T17:28:39;23.90;36.00
44982;DHT22;30716;41.740;-70.400;2023-03-03T17:33:50;23.90;36.10
44982;DHT22;30716;41.740;-70.400;2023-03-03T17:36:36;23.90;36.20
44982;DHT22;30716;41.740;-70.400;2023-03-03T17:42:08;23.90;36.10
44982;DHT22;30716;41.740;-70.400;2023-03-03T17:44:59;23.90;36.10
44982;DHT22;30716;41.740;-70.400;2023-03-03T17:58:38;23.90;37.30
44982;DHT22;30716;41.740;-70.400;2023-03-03T18:01:36;23.90;36.40
44982;DHT22;30716;41.740;-70.400;2023-03-03T18:04:28;23.90;36.60
44982;DHT22;30716;41.740;-70.400;2023-03-03T18:12:46;23.90;36.70
44982;DHT22;30716;41.740;-70.400;2023-03-03T18:15:27;23.80;36.70
44982;DHT22;30716;41.740;-70.400;2023-03-03T18:20:38;23.80;36.50
44982;DHT22;30716;41.740;-70.400;2023-03-03T18:23:30;23.90;36.60
44982;DHT22;30716;41.740;-70.400;2023-03-03T18:25:58;23.80;36.70
44982;DHT22;30716;41.740;-70.400;2023-03-03T18:31:30;23.80;36.60
44982;DHT22;30716;41.740;-70.400;2023-03-03T18:38:57;23.80;36.70
44982;DHT22;30716;41.740;-70.400;2023-03-03T18:41:29;23.80;36.50
44982;DHT22;30716;41.740;-70.400;2023-03-03T18:43:59;23.80;36.60
44982;DHT22;30716;41.740;-70.400;2023-03-03T18:51:49;23.80;36.60
44982;DHT22;30716;41.740;-70.400;2023-03-03T19:04:35;23.70;36.60
44982;DHT22;30716;41.740;-70.400;2023-03-03T19:18:33;23.70;36.60
44982;DHT22;30716;41.740;-70.400;2023-03-03T19:26:26;23.80;36.90
44982;DHT22;30716;41.740;-70.400;2023-03-03T19:34:41;23.80;36.90
44982;DHT22;30716;41.740;-70.400;2023-03-03T19:40:09;23.70;36.80
44982;DHT22;30716;41.740;-70.400;2023-03-03T19:43:05;23.80;36.80
44982;DHT22;30716;41.740;-70.400;2023-03-03T19:56:49;23.70;37.00
44982;DHT22;30716;41.740;-70.400;2023-03-03T20:01:56;23.70;36.90
44982;DHT22;30716;41.740;-70.400;2023-03-03T20:04:51;23.70;36.90
44982;DHT22;30716;41.740;-70.400;2023-03-03T20:15:43;23.70;36.80
44982;DHT22;30716;41.740;-70.400;2023-03-03T20:27:22;23.70;36.60
44982;DHT22;30716;41.740;-70.400;2023-03-03T20:40:30;23.70;36.80
44982;DHT22;30716;41.740;-70.400;2023-03-03T20:43:25;23.60;36.70
44982;DHT22;30716;41.740;-70.400;2023-03-03T20:49:04;23.60;36.80
44982;DHT22;30716;41.740;-70.400;2023-03-03T20:51:47;23.70;36.80
44982;DHT22;30716;41.740;-70.400;2023-03-03T20:59:56;23.60;36.90
44982;DHT22;30716;41.740;-70.400;2023-03-03T21:02:40;23.60;36.90
44982;DHT22;30716;41.740;-70.400;2023-03-03T21:05:13;23.60;36.80
44982;DHT22;30716;41.740;-70.400;2023-03-03T21:10:25;23.60;36.90
44982;DHT22;30716;41.740;-70.400;2023-03-03T21:12:57;23.60;36.80
44982;DHT22;30716;41.740;-70.400;2023-03-03T21:15:28;23.60;36.50
44982;DHT22;30716;41.740;-70.400;2023-03-03T21:17:55;23.60;36.70
44982;DHT22;30716;41.740;-70.400;2023-03-03T21:20:30;23.60;36.50
44982;DHT22;30716;41.740;-70.400;2023-03-03T21:22:59;23.70;36.80
44982;DHT22;30716;41.740;-70.400;2023-03-03T21:25:49;23.60;36.50
44982;DHT22;30716;41.740;-70.400;2023-03-03T21:28:32;23.60;36.40
44982;DHT22;30716;41.740;-70.400;2023-03-03T21:31:05;23.70;36.30
44982;DHT22;30716;41.740;-70.400;2023-03-03T21:33:53;23.70;36.40
44982;DHT22;30716;41.740;-70.400;2023-03-03T21:39:19;23.70;36.50
44982;DHT22;30716;41.740;-70.400;2023-03-03T21:42:05;23.60;36.30
44982;DHT22;30716;41.740;-70.400;2023-03-03T21:44:45;23.60;36.50
44982;DHT22;30716;41.740;-70.400;2023-03-03T21:47:22;23.70;36.40
44982;DHT22;30716;41.740;-70.400;2023-03-03T21:49:50;23.70;36.40
44982;DHT22;30716;41.740;-70.400;2023-03-03T21:52:18;23.70;36.30
44982;DHT22;30716;41.740;-70.400;2023-03-03T21:54:46;23.60;35.90